Time;durP1;ratioP1;P1;durP2;ratioP2;P2;SDS_P1;SDS_P2;PMS_P1;PMS_P2;Temp;Humidity;BMP_temperature;BMP_pressure;BME280_temperature;BME280_humidity;BME280_pressure;Samples;Min_cycle;Max_cycle;Signal;HPM_P1;HPM_P2
2021/09/27 00:01:07;;;;;;;11.75;3.80;;;19.00;99.90;;;;;;4841308;29;20042;-86
2021/09/27 00:03:34;;;;;;;15.52;3.97;;;19.00;99.90;;;;;;4821479;29;20558;-82
2021/09/27 00:06:01;;;;;;;12.85;3.20;;;18.90;99.90;;;;;;4830412;29;20097;-82
2021/09/27 00:08:27;;;;;;;18.05;3.35;;;19.00;99.90;;;;;;4823132;29;20099;-82
2021/09/27 00:10:59;;;;;;;14.45;3.28;;;18.90;99.90;;;;;;4841157;29;20412;-82
2021/09/27 00:13:31;;;;;;;11.90;3.10;;;19.00;99.90;;;;;;4840778;29;20029;-83
2021/09/27 00:15:57;;;;;;;11.52;3.30;;;18.90;99.90;;;;;;4840962;29;20034;-83
2021/09/27 00:18:23;;;;;;;10.30;3.50;;;18.90;99.90;;;;;;4840770;29;20361;-82
2021/09/27 00:20:56;;;;;;;11.35;4.07;;;18.80;99.90;;;;;;4840435;29;20041;-83
2021/09/27 00:23:22;;;;;;;12.55;3.03;;;18.80;99.90;;;;;;4840936;29;20034;-82
2021/09/27 00:25:49;;;;;;;11.95;3.67;;;18.80;99.90;;;;;;4840821;29;20034;-82
2021/09/27 00:28:16;;;;;;;9.93;3.30;;;18.80;99.90;;;;;;4840709;29;20090;-82
2021/09/27 00:30:42;;;;;;;13.00;3.67;;;18.70;99.90;;;;;;4840582;29;20033;-82
2021/09/27 00:33:09;;;;;;;14.48;3.20;;;18.60;99.90;;;;;;4840567;29;20034;-82
2021/09/27 00:35:37;;;;;;;16.77;3.55;;;18.60;99.90;;;;;;4840310;29;20026;-82
2021/09/27 00:38:05;;;;;;;9.38;3.30;;;18.60;99.90;;;;;;4840536;29;20033;-82
2021/09/27 00:40:34;;;;;;;13.35;3.70;;;18.60;99.90;;;;;;4840437;29;20099;-82
2021/09/27 00:43:00;;;;;;;11.05;3.67;;;18.50;99.90;;;;;;4840554;29;20029;-82
2021/09/27 00:45:35;;;;;;;14.88;3.28;;;18.50;99.90;;;;;;4840481;29;20037;-83
2021/09/27 00:48:00;;;;;;;;;;;18.50;99.90;;;;;;4840740;29;20045;-82
2021/09/27 00:50:30;;;;;;;10.45;3.10;;;18.50;99.90;;;;;;4840278;29;19908;-82
2021/09/27 00:52:57;;;;;;;16.45;3.20;;;18.50;99.90;;;;;;4840106;29;20079;-82
2021/09/27 00:55:24;;;;;;;9.30;3.03;;;18.50;99.90;;;;;;4840225;29;20081;-82
2021/09/27 00:57:52;;;;;;;9.63;2.95;;;18.60;99.90;;;;;;4840206;29;20109;-82
2021/09/27 01:00:22;;;;;;;12.57;3.47;;;18.60;99.90;;;;;;4840130;29;20033;-82
2021/09/27 01:02:48;;;;;;;13.35;4.28;;;18.60;99.90;;;;;;4840501;29;20022;-82
2021/09/27 01:05:16;;;;;;;10.95;3.30;;;18.60;99.90;;;;;;4839993;29;20032;-82
2021/09/27 01:08:18;;;;;;;11.00;3.30;;;18.50;99.90;;;;;;4840079;29;20026;-82
2021/09/27 01:10:58;;;;;;;12.13;3.75;;;18.50;99.90;;;;;;4839867;29;20057;-82
2021/09/27 01:13:52;;;;;;;14.02;4.07;;;18.40;99.90;;;;;;4840075;29;20034;-83
2021/09/27 01:16:24;;;;;;;15.10;3.85;;;18.50;99.90;;;;;;4839430;29;20034;-82
2021/09/27 01:19:01;;;;;;;12.15;3.47;;;18.40;99.90;;;;;;4839680;29;20037;-83
2021/09/27 01:21:46;;;;;;;18.67;4.40;;;18.40;99.90;;;;;;4839951;29;20030;-83
2021/09/27 01:24:48;;;;;;;9.80;3.17;;;18.40;99.90;;;;;;4839815;29;20026;-82
2021/09/27 01:27:35;;;;;;;10.15;3.65;;;18.30;99.90;;;;;;4839652;29;20100;-82
2021/09/27 01:30:15;;;;;;;10.48;3.72;;;18.30;99.90;;;;;;4839647;29;20045;-82
2021/09/27 01:32:55;;;;;;;11.48;3.50;;;18.30;99.90;;;;;;4839571;29;20026;-83
2021/09/27 01:35:24;;;;;;;10.98;3.28;;;18.30;99.90;;;;;;4839530;29;20069;-82
2021/09/27 01:38:20;;;;;;;15.18;3.78;;;18.20;99.90;;;;;;4839553;29;20377;-82
2021/09/27 01:40:55;;;;;;;24.20;4.15;;;18.20;99.90;;;;;;4839644;29;20476;-82
2021/09/27 01:43:48;;;;;;;14.88;4.85;;;18.20;99.90;;;;;;4840197;29;20050;-83
2021/09/27 01:46:31;;;;;;;14.30;4.75;;;18.30;99.90;;;;;;4839564;29;20026;-82
2021/09/27 01:49:04;;;;;;;17.38;4.28;;;18.30;99.90;;;;;;4839474;29;20040;-82
2021/09/27 01:51:44;;;;;;;20.27;5.72;;;18.30;99.90;;;;;;4839312;29;20030;-83
2021/09/27 01:54:36;;;;;;;15.18;3.88;;;18.30;99.90;;;;;;4839612;29;20506;-84
2021/09/27 01:57:22;;;;;;;13.57;4.72;;;18.30;99.90;;;;;;4839741;29;20150;-83
2021/09/27 02:00:06;;;;;;;10.27;4.20;;;18.20;99.90;;;;;;4839410;29;20151;-83
2021/09/27 02:02:58;;;;;;;13.95;4.55;;;18.20;99.90;;;;;;4839647;29;20061;-83
2021/09/27 02:05:33;;;;;;;11.70;4.40;;;18.20;99.90;;;;;;4837049;29;20070;-82
2021/09/27 02:08:18;;;;;;;15.23;4.40;;;18.20;99.90;;;;;;4839588;29;20048;-82
2021/09/27 02:11:00;;;;;;;17.15;4.90;;;18.20;99.90;;;;;;4827625;29;20087;-83
2021/09/27 02:13:31;;;;;;;11.35;4.57;;;18.20;99.90;;;;;;4839210;29;20022;-83
2021/09/27 02:16:01;;;;;;;14.38;5.00;;;18.20;99.90;;;;;;4819982;29;20129;-82
2021/09/27 02:18:31;;;;;;;15.82;5.05;;;18.20;99.90;;;;;;4834136;29;20149;-82
2021/09/27 02:21:04;;;;;;;16.42;4.55;;;18.20;99.90;;;;;;4839241;29;20425;-82
2021/09/27 02:23:47;;;;;;;22.27;5.90;;;18.20;99.90;;;;;;4839278;29;20069;-82
2021/09/27 02:26:14;;;;;;;14.93;5.78;;;18.20;99.90;;;;;;4839353;29;20028;-82
2021/09/27 02:28:40;;;;;;;14.55;4.90;;;18.20;99.90;;;;;;4841520;29;20502;-82
2021/09/27 02:31:19;;;;;;;13.00;4.68;;;18.20;99.90;;;;;;4842842;29;20448;-83
2021/09/27 02:33:55;;;;;;;12.30;4.38;;;18.30;99.90;;;;;;4842810;29;20036;-82
2021/09/27 02:36:20;;;;;;;13.82;4.35;;;18.30;99.90;;;;;;4842740;29;20086;-82
2021/09/27 02:38:59;;;;;;;15.00;4.95;;;18.30;99.90;;;;;;4842582;29;20034;-82
2021/09/27 02:41:37;;;;;;;11.63;3.83;;;18.30;99.90;;;;;;4842534;29;20034;-82
2021/09/27 02:44:04;;;;;;;13.82;4.13;;;18.30;99.90;;;;;;4826159;29;20429;-82
2021/09/27 02:46:30;;;;;;;13.75;3.88;;;18.30;99.90;;;;;;4842250;29;20018;-82
2021/09/27 02:49:09;;;;;;;14.95;4.05;;;18.30;99.90;;;;;;4842535;29;20074;-82
2021/09/27 02:51:36;;;;;;;18.73;4.65;;;18.30;99.90;;;;;;4842159;29;20049;-82
2021/09/27 02:54:02;;;;;;;12.02;3.83;;;18.30;99.90;;;;;;4842656;29;20063;-82
2021/09/27 02:56:51;;;;;;;13.32;4.18;;;18.30;99.90;;;;;;4842290;29;20026;-82
2021/09/27 02:59:54;;;;;;;17.83;4.53;;;18.40;99.90;;;;;;4808171;29;20113;-82
2021/09/27 03:02:39;;;;;;;12.05;4.25;;;18.40;99.90;;;;;;4842232;29;20687;-82
2021/09/27 03:05:07;;;;;;;16.10;4.30;;;18.40;99.90;;;;;;4825534;29;20376;-82
2021/09/27 03:07:33;;;;;;;13.13;4.00;;;18.40;99.90;;;;;;4842242;29;20026;-82
2021/09/27 03:10:01;;;;;;;19.92;5.07;;;18.40;99.90;;;;;;4825471;29;20060;-82
2021/09/27 03:12:59;;;;;;;10.25;3.67;;;18.40;99.90;;;;;;4842095;29;20026;-82
2021/09/27 03:15:51;;;;;;;10.05;4.07;;;18.30;99.90;;;;;;4820405;29;20050;-82
2021/09/27 03:18:54;;;;;;;12.98;4.78;;;18.30;99.90;;;;;;4841976;29;20037;-82
2021/09/27 03:21:43;;;;;;;12.10;4.35;;;18.30;99.90;;;;;;4841650;29;20026;-82
2021/09/27 03:24:33;;;;;;;13.80;5.10;;;18.40;99.90;;;;;;4822159;29;20408;-82
2021/09/27 03:27:36;;;;;;;16.88;4.80;;;18.40;99.90;;;;;;4836825;29;20499;-82
2021/09/27 03:30:21;;;;;;;13.80;5.10;;;18.40;99.90;;;;;;4836354;29;20054;-82
2021/09/27 03:33:05;;;;;;;9.48;4.55;;;18.40;99.90;;;;;;4841742;29;20022;-82
2021/09/27 03:36:12;;;;;;;15.52;5.40;;;18.40;99.90;;;;;;4841373;29;20026;-82
2021/09/27 03:38:47;;;;;;;13.63;5.15;;;18.40;99.90;;;;;;4811508;29;20034;-82
2021/09/27 03:41:15;;;;;;;14.13;5.10;;;18.40;99.90;;;;;;4840629;29;20101;-82
2021/09/27 03:44:08;;;;;;;18.50;5.50;;;18.50;99.90;;;;;;4841606;29;20034;-82
2021/09/27 03:46:52;;;;;;;14.27;4.88;;;18.50;99.90;;;;;;4810431;29;20132;-82
2021/09/27 03:49:36;;;;;;;17.27;5.60;;;18.50;99.90;;;;;;4841391;29;20050;-82
2021/09/27 03:52:04;;;;;;;12.82;4.45;;;18.50;99.90;;;;;;4841265;29;20113;-83
2021/09/27 03:54:32;;;;;;;10.90;5.30;;;18.50;99.90;;;;;;4841154;29;20030;-82
2021/09/27 03:57:22;;;;;;;14.50;4.82;;;18.50;99.90;;;;;;4840942;29;20034;-82
2021/09/27 03:59:52;;;;;;;9.45;4.85;;;18.50;99.90;;;;;;4840979;29;20040;-82
2021/09/27 04:02:34;;;;;;;11.02;3.85;;;18.50;99.90;;;;;;4841132;29;20449;-82
2021/09/27 04:05:05;;;;;;;8.75;3.78;;;18.60;99.90;;;;;;4841167;29;20106;-82
2021/09/27 04:07:57;;;;;;;11.18;3.80;;;18.60;99.90;;;;;;4840967;29;20152;-82
2021/09/27 04:10:40;;;;;;;8.18;4.00;;;18.70;99.90;;;;;;4840835;29;20531;-82
2021/09/27 04:13:32;;;;;;;10.88;4.18;;;18.70;99.90;;;;;;4821247;29;20040;-82
2021/09/27 04:15:58;;;;;;;9.20;3.83;;;18.60;99.90;;;;;;4827551;29;20092;-82
2021/09/27 04:19:22;;;;;;;7.15;3.67;;;18.70;99.90;;;;;;4840733;29;20053;-82
2021/09/27 04:22:00;;;;;;;9.68;3.50;;;18.70;99.90;;;;;;4827773;29;20116;-82
2021/09/27 04:24:44;;;;;;;10.85;4.63;;;18.70;99.90;;;;;;4840776;29;20040;-82
2021/09/27 04:27:37;;;;;;;11.38;4.82;;;18.60;99.90;;;;;;4840581;29;20109;-82
2021/09/27 04:30:34;;;;;;;9.57;4.93;;;18.60;99.90;;;;;;4824073;29;20145;-82
2021/09/27 04:33:13;;;;;;;15.00;6.38;;;18.60;99.90;;;;;;4840482;29;20510;-83
2021/09/27 04:35:51;;;;;;;10.95;5.60;;;18.60;99.90;;;;;;4840230;29;20026;-82
2021/09/27 04:38:17;;;;;;;13.23;6.78;;;18.60;99.90;;;;;;4840891;29;20049;-82
2021/09/27 04:40:57;;;;;;;11.10;6.38;;;18.50;99.90;;;;;;4823860;29;20026;-82
2021/09/27 04:43:50;;;;;;;13.40;7.13;;;18.50;99.90;;;;;;4840859;29;20030;-83
2021/09/27 04:46:44;;;;;;;11.93;6.70;;;18.50;99.90;;;;;;4840220;29;20040;-82
2021/09/27 04:49:21;;;;;;;11.73;6.28;;;18.50;99.90;;;;;;4839979;29;20038;-82
2021/09/27 04:52:06;;;;;;;19.95;7.80;;;18.50;99.90;;;;;;4839446;29;20030;-83
2021/09/27 04:55:03;;;;;;;16.73;6.68;;;18.50;99.90;;;;;;4840124;29;20066;-82
2021/09/27 04:58:01;;;;;;;9.55;6.47;;;18.50;99.90;;;;;;4839968;29;20441;-82
2021/09/27 05:01:04;;;;;;;10.80;6.40;;;18.50;99.90;;;;;;4805736;29;20081;-82
2021/09/27 05:03:42;;;;;;;14.35;6.50;;;18.50;99.90;;;;;;4840032;29;20046;-82
2021/09/27 05:06:47;;;;;;;17.77;7.55;;;18.50;99.90;;;;;;4823323;29;20082;-82
2021/09/27 05:09:13;;;;;;;;;;;18.50;99.90;;;;;;4838934;29;20453;-82
2021/09/27 05:11:41;;;;;;;13.57;6.43;;;18.50;99.90;;;;;;4839826;29;19908;-82
2021/09/27 05:14:44;;;;;;;13.30;6.25;;;18.50;99.90;;;;;;4839825;29;20117;-82
2021/09/27 05:17:20;;;;;;;11.65;6.50;;;18.50;99.90;;;;;;4839994;29;20022;-82
2021/09/27 05:20:23;;;;;;;17.52;6.60;;;18.50;99.90;;;;;;4839798;29;20069;-82
2021/09/27 05:22:56;;;;;;;11.15;6.15;;;18.50;99.90;;;;;;4839806;29;20105;-82
2021/09/27 05:25:41;;;;;;;17.80;6.82;;;18.50;99.90;;;;;;4839694;29;20033;-82
2021/09/27 05:28:41;;;;;;;16.67;6.85;;;18.50;99.90;;;;;;4839509;29;20518;-82
2021/09/27 05:31:30;;;;;;;18.13;7.18;;;18.60;99.90;;;;;;4839805;29;20437;-82
2021/09/27 05:34:14;;;;;;;17.67;6.70;;;18.50;99.90;;;;;;4839889;29;20078;-85
2021/09/27 05:36:43;;;;;;;15.50;6.85;;;18.50;99.90;;;;;;4839612;29;20118;-84
2021/09/27 05:39:37;;;;;;;13.27;6.70;;;18.50;99.90;;;;;;4839038;29;20034;-85
2021/09/27 05:42:18;;;;;;;11.05;6.47;;;18.50;99.90;;;;;;4839355;29;20030;-85
2021/09/27 05:45:05;;;;;;;15.35;7.28;;;18.50;99.90;;;;;;4837585;29;20026;-86
2021/09/27 05:47:50;;;;;;;11.43;5.82;;;18.50;99.90;;;;;;4839006;29;20105;-86
2021/09/27 05:50:40;;;;;;;13.00;5.97;;;18.50;99.90;;;;;;4820909;29;20502;-86
2021/09/27 05:53:39;;;;;;;15.43;5.82;;;18.60;99.90;;;;;;4839195;29;20033;-86
2021/09/27 05:56:29;;;;;;;14.25;6.07;;;18.60;99.90;;;;;;4819800;29;20070;-86
2021/09/27 05:59:02;;;;;;;15.73;6.22;;;18.60;99.90;;;;;;4837270;29;20041;-86
2021/09/27 06:01:46;;;;;;;10.98;5.80;;;18.50;99.90;;;;;;4838818;29;20510;-86
2021/09/27 06:04:26;;;;;;;14.55;6.18;;;18.60;99.90;;;;;;4840286;29;20029;-85
2021/09/27 06:07:05;;;;;;;12.77;5.75;;;18.50;99.90;;;;;;4843091;29;20080;-86
2021/09/27 06:09:50;;;;;;;14.55;6.07;;;18.60;99.90;;;;;;4826339;29;20653;-86
2021/09/27 06:12:53;;;;;;;12.32;6.55;;;18.60;99.90;;;;;;4843010;29;20405;-86
2021/09/27 06:15:25;;;;;;;9.85;5.78;;;18.60;99.90;;;;;;4839579;29;20512;-86
2021/09/27 06:17:54;;;;;;;12.98;5.53;;;18.60;99.90;;;;;;4826065;29;20030;-86
2021/09/27 06:20:41;;;;;;;11.38;5.38;;;18.60;99.90;;;;;;4842520;29;20441;-86
2021/09/27 06:23:49;;;;;;;12.02;5.65;;;18.60;99.90;;;;;;4826090;29;20032;-86
2021/09/27 06:26:15;;;;;;;11.30;4.55;;;18.80;99.90;;;;;;4835568;29;20452;-86
2021/09/27 06:28:57;;;;;;;10.77;4.68;;;18.80;99.90;;;;;;4842492;29;20042;-86
2021/09/27 06:32:04;;;;;;;8.93;5.25;;;18.90;99.90;;;;;;4842547;29;20053;-86
2021/09/27 06:34:38;;;;;;;8.23;4.57;;;18.90;99.90;;;;;;4837548;29;20034;-86
2021/09/27 06:37:04;;;;;;;;;;;18.90;99.90;;;;;;4836849;29;20073;-85
2021/09/27 06:39:32;;;;;;;11.55;4.63;;;18.90;99.90;;;;;;4842103;29;19995;-86
2021/09/27 06:41:58;;;;;;;10.07;4.88;;;19.00;99.90;;;;;;4825426;29;20026;-86
2021/09/27 06:44:24;;;;;;;10.05;3.88;;;19.00;99.90;;;;;;4842478;29;20101;-86
2021/09/27 06:46:52;;;;;;;9.15;3.85;;;19.10;99.90;;;;;;4842598;29;20026;-85
2021/09/27 06:49:18;;;;;;;14.98;4.63;;;19.10;99.90;;;;;;4842234;29;20034;-86
2021/09/27 06:51:44;;;;;;;8.65;4.10;;;19.10;99.90;;;;;;4822482;29;20023;-86
2021/09/27 06:54:16;;;;;;;11.30;4.50;;;19.10;99.90;;;;;;4833414;29;20527;-85
2021/09/27 06:56:42;;;;;;;12.07;4.63;;;19.10;99.90;;;;;;4842257;29;20025;-86
2021/09/27 06:59:08;;;;;;;11.63;4.60;;;19.10;99.90;;;;;;4842279;29;20105;-85
2021/09/27 07:01:35;;;;;;;11.73;4.15;;;19.20;99.90;;;;;;4823596;29;20407;-86
2021/09/27 07:04:00;;;;;;;8.48;4.50;;;19.30;99.90;;;;;;4822313;29;20031;-86
2021/09/27 07:06:26;;;;;;;15.80;5.25;;;19.30;99.90;;;;;;4836214;29;20030;-86
2021/09/27 07:08:53;;;;;;;9.95;4.97;;;19.30;99.90;;;;;;4822317;29;20338;-86
2021/09/27 07:11:19;;;;;;;11.68;4.72;;;19.10;99.90;;;;;;4834569;29;20541;-86
2021/09/27 07:13:45;;;;;;;17.38;5.53;;;19.10;99.90;;;;;;4841144;29;20022;-86
2021/09/27 07:16:11;;;;;;;11.48;5.13;;;19.00;99.90;;;;;;4841707;29;20033;-86
2021/09/27 07:18:37;;;;;;;13.02;5.70;;;19.00;99.90;;;;;;4841766;29;20517;-86
2021/09/27 07:21:05;;;;;;;13.13;5.93;;;19.00;99.90;;;;;;4841761;29;20105;-86
2021/09/27 07:23:35;;;;;;;14.80;5.85;;;18.90;99.90;;;;;;4841981;29;20036;-85
2021/09/27 07:26:01;;;;;;;17.17;6.93;;;18.80;99.90;;;;;;4842120;29;20029;-86
2021/09/27 07:28:27;;;;;;;16.80;6.63;;;18.70;99.90;;;;;;4842142;29;20078;-86
2021/09/27 07:30:52;;;;;;;17.38;6.68;;;18.70;99.90;;;;;;4841661;29;20033;-85
2021/09/27 07:33:19;;;;;;;19.77;7.38;;;18.60;99.90;;;;;;4841666;29;20038;-86
2021/09/27 07:35:45;;;;;;;13.85;4.88;;;18.60;99.90;;;;;;4841302;29;20026;-85
2021/09/27 07:38:12;;;;;;;18.90;5.03;;;18.60;99.90;;;;;;4841813;29;20105;-85
2021/09/27 07:40:38;;;;;;;20.17;3.70;;;18.60;99.90;;;;;;4841685;29;20030;-85
2021/09/27 07:43:06;;;;;;;18.40;3.17;;;18.50;99.90;;;;;;4841539;29;20051;-86
2021/09/27 07:45:34;;;;;;;17.30;2.97;;;18.60;99.90;;;;;;4822020;29;20034;-86
2021/09/27 07:48:07;;;;;;;15.27;3.70;;;18.60;99.90;;;;;;4837287;29;20395;-87
2021/09/27 07:50:33;;;;;;;18.35;4.30;;;18.70;99.90;;;;;;4824747;29;20092;-86
2021/09/27 07:53:00;;;;;;;23.75;3.90;;;18.80;99.90;;;;;;4841287;29;20029;-87
2021/09/27 07:55:26;;;;;;;23.88;3.85;;;18.80;99.90;;;;;;4841346;29;20038;-86
2021/09/27 07:57:52;;;;;;;23.20;4.07;;;18.90;99.90;;;;;;4841472;29;20034;-85
2021/09/27 08:00:18;;;;;;;26.10;4.05;;;19.10;99.90;;;;;;4841170;29;20426;-86
2021/09/27 08:02:44;;;;;;;23.58;4.60;;;19.20;99.90;;;;;;4841242;29;20026;-85
2021/09/27 08:05:17;;;;;;;28.98;4.55;;;19.20;99.90;;;;;;4824103;29;20449;-86
2021/09/27 08:07:42;;;;;;;23.45;3.97;;;19.20;99.90;;;;;;4840967;29;20264;-85
2021/09/27 08:10:10;;;;;;;22.85;4.35;;;19.20;99.90;;;;;;4840902;29;20318;-86
2021/09/27 08:12:37;;;;;;;17.85;3.95;;;19.30;99.90;;;;;;4841092;29;20022;-86
2021/09/27 08:15:12;;;;;;;20.70;4.05;;;19.30;99.90;;;;;;4840697;29;20053;-86
2021/09/27 08:17:39;;;;;;;16.90;4.07;;;19.40;99.90;;;;;;4841097;29;20035;-85
2021/09/27 08:20:10;;;;;;;16.52;3.28;;;19.40;99.90;;;;;;4840965;29;20032;-85
2021/09/27 08:22:35;;;;;;;18.30;3.28;;;19.50;99.90;;;;;;4840422;29;20049;-86
2021/09/27 08:25:03;;;;;;;18.02;3.65;;;19.60;99.90;;;;;;4840777;29;20030;-87
2021/09/27 08:27:29;;;;;;;13.77;3.25;;;19.70;99.90;;;;;;4840572;29;20093;-86
2021/09/27 08:29:55;;;;;;;21.90;3.67;;;19.70;99.90;;;;;;4840886;29;20491;-86
2021/09/27 08:32:21;;;;;;;18.83;2.92;;;19.80;99.90;;;;;;4840698;29;20041;-86
2021/09/27 08:34:51;;;;;;;24.33;4.90;;;19.70;99.90;;;;;;4821194;29;20037;-87
2021/09/27 08:37:18;;;;;;;21.73;3.75;;;19.50;99.90;;;;;;4834965;29;20040;-85
2021/09/27 08:39:46;;;;;;;25.63;3.90;;;19.30;99.90;;;;;;4840663;29;20037;-87
2021/09/27 08:42:26;;;;;;;21.85;2.75;;;19.00;99.90;;;;;;4840255;29;20033;-87
2021/09/27 08:45:02;;;;;;;18.52;3.38;;;18.80;99.90;;;;;;4824422;29;20045;-86
2021/09/27 08:47:42;;;;;;;17.50;3.47;;;18.70;99.90;;;;;;4824052;29;20049;-87
2021/09/27 08:50:17;;;;;;;25.02;3.70;;;18.70;99.90;;;;;;4840273;29;20060;-86
2021/09/27 08:52:43;;;;;;;22.00;4.20;;;18.70;99.90;;;;;;4840365;29;20567;-86
2021/09/27 08:55:12;;;;;;;31.35;4.43;;;18.70;99.90;;;;;;4840153;29;20101;-86
2021/09/27 08:57:43;;;;;;;28.65;4.88;;;18.70;99.90;;;;;;4823921;29;20022;-87
2021/09/27 09:00:33;;;;;;;24.90;3.20;;;18.80;99.90;;;;;;4836753;29;20078;-86
2021/09/27 09:03:28;;;;;;;18.00;2.75;;;18.80;99.90;;;;;;4840725;29;20030;-86
2021/09/27 09:06:19;;;;;;;13.35;2.50;;;18.80;99.90;;;;;;4807084;29;20412;-86
2021/09/27 09:08:47;;;;;;;19.88;2.95;;;18.80;99.90;;;;;;4838555;29;20041;-86
2021/09/27 09:11:40;;;;;;;20.33;2.92;;;18.80;99.90;;;;;;4840147;29;20026;-86
2021/09/27 09:14:24;;;;;;;19.17;3.25;;;18.90;99.90;;;;;;4839776;29;20538;-86
2021/09/27 09:16:51;;;;;;;20.98;2.65;;;19.00;99.90;;;;;;4838751;29;20042;-86
2021/09/27 09:19:21;;;;;;;24.55;3.35;;;19.00;99.90;;;;;;4839817;29;20022;-87
2021/09/27 09:21:51;;;;;;;22.80;3.30;;;19.10;99.90;;;;;;4839819;29;20022;-87
2021/09/27 09:24:33;;;;;;;20.90;3.42;;;19.20;99.90;;;;;;4840090;29;20038;-86
2021/09/27 09:27:03;;;;;;;14.27;2.42;;;19.40;99.90;;;;;;4839960;29;20072;-86
2021/09/27 09:29:35;;;;;;;17.15;2.83;;;19.30;99.90;;;;;;4839864;29;20495;-87
2021/09/27 09:32:27;;;;;;;15.75;2.17;;;19.30;99.90;;;;;;4839824;29;20040;-87
2021/09/27 09:35:16;;;;;;;15.10;2.20;;;19.30;99.90;;;;;;4839696;29;20034;-86
2021/09/27 09:37:47;;;;;;;20.45;1.92;;;19.20;99.90;;;;;;4838996;29;20037;-87
2021/09/27 09:40:19;;;;;;;18.42;2.05;;;19.10;99.90;;;;;;4820511;29;20030;-86
2021/09/27 09:43:01;;;;;;;15.27;2.83;;;19.20;99.90;;;;;;4837850;29;20033;-87
2021/09/27 09:45:33;;;;;;;16.50;1.52;;;19.30;99.90;;;;;;4839745;29;20499;-86
2021/09/27 09:48:24;;;;;;;14.00;2.45;;;19.40;99.90;;;;;;4838262;29;20038;-86
2021/09/27 09:50:56;;;;;;;12.77;2.00;;;19.40;99.90;;;;;;4838041;29;20034;-86
2021/09/27 09:53:24;;;;;;;18.05;2.55;;;19.40;99.90;;;;;;4820079;29;20499;-87
2021/09/27 09:56:16;;;;;;;21.23;2.70;;;19.40;99.90;;;;;;4832422;29;20101;-86
2021/09/27 09:58:49;;;;;;;13.60;2.10;;;19.40;99.90;;;;;;4838306;29;20078;-87
2021/09/27 10:01:28;;;;;;;14.88;2.45;;;19.40;99.90;;;;;;4839647;29;20383;-86
2021/09/27 10:04:01;;;;;;;19.98;2.25;;;19.40;99.90;;;;;;4839228;29;20030;-86
2021/09/27 10:06:47;;;;;;;14.60;1.80;;;19.50;99.90;;;;;;4839557;29;20486;-86
2021/09/27 10:09:29;;;;;;;13.90;2.25;;;19.50;99.90;;;;;;4822378;29;20037;-86
2021/09/27 10:12:01;;;;;;;15.05;2.10;;;19.50;99.90;;;;;;4839310;29;20033;-87
2021/09/27 10:14:30;;;;;;;10.00;1.80;;;19.60;99.90;;;;;;4839167;29;20050;-86
2021/09/27 10:17:10;;;;;;;13.43;2.42;;;19.70;99.90;;;;;;4839520;29;20034;-86
2021/09/27 10:19:46;;;;;;;13.63;2.08;;;19.70;99.90;;;;;;4822693;29;20531;-86
2021/09/27 10:22:17;;;;;;;13.25;2.08;;;19.70;99.90;;;;;;4839302;29;20069;-87
2021/09/27 10:24:46;;;;;;;13.57;2.28;;;19.80;99.90;;;;;;4839492;29;20030;-87
2021/09/27 10:27:24;;;;;;;13.00;2.38;;;20.00;99.90;;;;;;4819782;29;20034;-86
2021/09/27 10:29:51;;;;;;;10.30;1.63;;;19.90;99.90;;;;;;4838932;29;20061;-86
2021/09/27 10:32:31;;;;;;;9.32;1.80;;;19.90;99.90;;;;;;4837857;29;20026;-87
2021/09/27 10:35:23;;;;;;;11.70;1.75;;;19.90;99.90;;;;;;4847098;29;20056;-86
2021/09/27 10:37:51;;;;;;;13.70;2.00;;;19.80;99.90;;;;;;4845659;29;20583;-86
2021/09/27 10:40:18;;;;;;;11.48;2.17;;;19.80;99.90;;;;;;4822469;29;20053;-86
2021/09/27 10:42:49;;;;;;;10.30;1.90;;;20.00;99.90;;;;;;4839246;29;20030;-86
2021/09/27 10:45:17;;;;;;;10.07;1.88;;;19.80;99.90;;;;;;4838983;29;20033;-86
2021/09/27 10:47:49;;;;;;;10.93;1.92;;;19.80;99.90;;;;;;4838724;29;20055;-86
2021/09/27 10:50:29;;;;;;;13.77;2.15;;;19.90;99.90;;;;;;4842035;29;20223;-86
2021/09/27 10:53:00;;;;;;;14.15;2.25;;;19.80;99.90;;;;;;4842336;29;20734;-86
2021/09/27 10:55:44;;;;;;;9.52;1.90;;;19.80;99.90;;;;;;4842458;29;20044;-87
2021/09/27 10:58:23;;;;;;;11.48;2.25;;;19.80;99.90;;;;;;4850902;29;20018;-86
2021/09/27 11:00:52;;;;;;;10.70;1.80;;;19.80;99.90;;;;;;4842479;29;20041;-86
2021/09/27 11:03:43;;;;;;;12.48;2.03;;;19.80;99.90;;;;;;4841941;29;20026;-87
2021/09/27 11:06:51;;;;;;;17.00;2.67;;;19.80;99.90;;;;;;4836360;29;20051;-86
2021/09/27 11:09:28;;;;;;;12.82;2.30;;;19.90;99.90;;;;;;4826897;29;20046;-86
2021/09/27 11:12:29;;;;;;;11.25;2.15;;;20.10;99.90;;;;;;4841640;29;20041;-87
2021/09/27 11:15:13;;;;;;;12.05;1.63;;;20.00;99.90;;;;;;4841341;29;20618;-88
2021/09/27 11:17:39;;;;;;;9.93;2.42;;;20.10;99.90;;;;;;4826197;29;20030;-87
2021/09/27 11:20:16;;;;;;;10.35;2.47;;;20.10;99.90;;;;;;4824925;29;20186;-87
2021/09/27 11:22:54;;;;;;;11.63;1.77;;;20.10;99.90;;;;;;4841590;29;20037;-88
2021/09/27 11:25:23;;;;;;;14.45;2.22;;;20.20;99.90;;;;;;4825275;29;20022;-88
2021/09/27 11:28:13;;;;;;;11.27;1.80;;;20.20;99.90;;;;;;4824844;29;20211;-89
2021/09/27 11:30:42;;;;;;;10.32;2.30;;;20.10;99.90;;;;;;4840748;29;20407;-86
2021/09/27 11:33:43;;;;;;;10.98;1.98;;;20.20;99.90;;;;;;4840767;29;20052;-85
2021/09/27 11:36:34;;;;;;;11.48;1.77;;;20.20;99.90;;;;;;4835730;29;20408;-85
2021/09/27 11:39:06;;;;;;;11.88;2.13;;;20.20;99.90;;;;;;4835293;29;20552;-86
2021/09/27 11:41:39;;;;;;;10.75;2.10;;;20.30;99.90;;;;;;4840941;29;20530;-85
2021/09/27 11:44:08;;;;;;;10.00;1.30;;;20.20;99.90;;;;;;4841333;29;20037;-85
2021/09/27 11:46:37;;;;;;;11.43;1.98;;;20.30;99.90;;;;;;4818630;29;20086;-85
2021/09/27 11:49:23;;;;;;;10.40;1.80;;;20.30;99.90;;;;;;4840745;29;20132;-84
2021/09/27 11:52:20;;;;;;;11.52;1.83;;;20.30;99.90;;;;;;4836188;29;20033;-85
2021/09/27 11:54:48;;;;;;;12.45;2.00;;;20.30;99.90;;;;;;4837452;29;20038;-83
2021/09/27 11:57:23;;;;;;;14.63;1.60;;;20.40;99.90;;;;;;4840561;29;20049;-83
2021/09/27 12:00:08;;;;;;;9.23;1.50;;;20.50;99.90;;;;;;4839342;29;20033;-83
2021/09/27 12:02:54;;;;;;;11.05;1.73;;;20.50;99.90;;;;;;4840106;29;20069;-83
2021/09/27 12:05:20;;;;;;;13.85;1.80;;;20.50;99.90;;;;;;4840030;29;20065;-83
2021/09/27 12:07:55;;;;;;;14.52;2.05;;;20.40;99.90;;;;;;4840222;29;20070;-83
2021/09/27 12:10:40;;;;;;;12.30;1.58;;;20.60;99.90;;;;;;4840321;29;20041;-83
2021/09/27 12:13:13;;;;;;;13.35;1.52;;;20.80;99.90;;;;;;4827375;29;20033;-83
2021/09/27 12:15:42;;;;;;;14.18;1.70;;;20.80;99.90;;;;;;4840324;29;20554;-83
2021/09/27 12:18:33;;;;;;;13.23;2.67;;;20.70;99.90;;;;;;4840075;29;20127;-83
2021/09/27 12:21:04;;;;;;;12.75;1.80;;;20.60;99.90;;;;;;4823611;29;20052;-83
2021/09/27 12:23:43;;;;;;;11.55;1.60;;;20.70;99.90;;;;;;4823791;29;20403;-84
2021/09/27 12:26:19;;;;;;;13.13;1.70;;;20.70;99.90;;;;;;4840008;29;20041;-83
2021/09/27 12:28:45;;;;;;;11.68;1.77;;;20.80;99.90;;;;;;4823503;29;20401;-83
2021/09/27 12:31:11;;;;;;;10.05;1.73;;;20.90;99.90;;;;;;4839966;29;20033;-83
2021/09/27 12:33:38;;;;;;;8.68;1.58;;;21.20;99.90;;;;;;4840362;29;20030;-83
2021/09/27 12:36:12;;;;;;;7.50;1.20;;;21.30;99.90;;;;;;4823382;29;20052;-83
2021/09/27 12:38:46;;;;;;;10.02;1.65;;;21.40;99.90;;;;;;4839545;29;20058;-86
2021/09/27 12:41:12;;;;;;;12.32;1.70;;;21.20;99.90;;;;;;4840091;29;20040;-86
2021/09/27 12:43:38;;;;;;;10.38;1.50;;;20.60;99.90;;;;;;4840014;29;20034;-86
2021/09/27 12:46:25;;;;;;;15.55;2.05;;;20.20;99.90;;;;;;4840131;29;20022;-86
2021/09/27 12:49:03;;;;;;;10.88;1.67;;;20.20;99.90;;;;;;4839678;29;20098;-85
2021/09/27 12:51:34;;;;;;;15.68;1.88;;;20.20;99.90;;;;;;4823394;29;20295;-85
2021/09/27 12:54:27;;;;;;;10.68;1.65;;;20.60;99.90;;;;;;4839798;29;20038;-89
2021/09/27 12:56:54;;;;;;;11.68;2.05;;;20.80;99.90;;;;;;4830844;29;20034;-89
2021/09/27 12:59:28;;;;;;;12.10;1.55;;;20.60;99.90;;;;;;4839868;29;20083;-88
2021/09/27 13:02:06;;;;;;;13.25;2.13;;;20.20;99.90;;;;;;4839563;29;20026;-88
2021/09/27 13:04:48;;;;;;;11.73;2.35;;;20.10;99.90;;;;;;4823392;29;20121;-88
2021/09/27 13:07:16;;;;;;;8.18;1.85;;;20.00;99.90;;;;;;4838862;29;20030;-88
2021/09/27 13:09:54;;;;;;;10.52;1.63;;;20.10;99.90;;;;;;4839686;29;20060;-88
2021/09/27 13:12:27;;;;;;;9.85;1.30;;;20.40;99.90;;;;;;4838833;29;20388;-88
2021/09/27 13:15:15;;;;;;;11.43;1.98;;;20.30;99.90;;;;;;4839462;29;20072;-76
2021/09/27 13:18:12;;;;;;;11.80;1.55;;;20.40;99.90;;;;;;4839359;29;20044;-77
2021/09/27 13:21:00;;;;;;;8.60;1.63;;;20.30;99.90;;;;;;4833123;29;20037;-78
2021/09/27 13:23:49;;;;;;;14.50;2.63;;;20.10;99.90;;;;;;4839378;29;20160;-78
2021/09/27 13:26:43;;;;;;;10.23;1.20;;;20.40;99.90;;;;;;4839800;29;20033;-80
2021/09/27 13:29:40;;;;;;;16.35;2.25;;;20.50;99.90;;;;;;4833103;29;20042;-79